sensor_id;sensor_type;location;lat;lon;timestamp;P1;durP1;ratioP1;P2;durP2;ratioP2
16324;SDS011;8272;50.776;0.294;2024-03-22T00:01:45;0.00;;;0.00;;
16324;SDS011;8272;50.776;0.294;2024-03-22T00:04:11;0.00;;;0.00;;
16324;SDS011;8272;50.776;0.294;2024-03-22T00:06:38;0.00;;;0.00;;
16324;SDS011;8272;50.776;0.294;2024-03-22T00:09:05;0.00;;;0.00;;
16324;SDS011;8272;50.776;0.294;2024-03-22T00:11:31;0.00;;;0.00;;
16324;SDS011;8272;50.776;0.294;2024-03-22T00:13:58;0.00;;;0.00;;
16324;SDS011;8272;50.776;0.294;2024-03-22T00:16:24;0.00;;;0.00;;
16324;SDS011;8272;50.776;0.294;2024-03-22T00:18:50;0.00;;;0.00;;
16324;SDS011;8272;50.776;0.294;2024-03-22T00:21:16;0.00;;;0.00;;
16324;SDS011;8272;50.776;0.294;2024-03-22T00:23:43;0.00;;;0.00;;
16324;SDS011;8272;50.776;0.294;2024-03-22T00:26:09;0.00;;;0.00;;
16324;SDS011;8272;50.776;0.294;2024-03-22T00:28:35;0.00;;;0.00;;
16324;SDS011;8272;50.776;0.294;2024-03-22T00:31:01;0.00;;;0.00;;
16324;SDS011;8272;50.776;0.294;2024-03-22T00:33:27;0.00;;;0.00;;
16324;SDS011;8272;50.776;0.294;2024-03-22T00:35:53;0.00;;;0.00;;
16324;SDS011;8272;50.776;0.294;2024-03-22T00:38:19;0.00;;;0.00;;
16324;SDS011;8272;50.776;0.294;2024-03-22T00:40:46;0.00;;;0.00;;
16324;SDS011;8272;50.776;0.294;2024-03-22T00:43:12;0.00;;;0.00;;
16324;SDS011;8272;50.776;0.294;2024-03-22T00:45:38;0.00;;;0.00;;
16324;SDS011;8272;50.776;0.294;2024-03-22T00:48:04;0.00;;;0.00;;
16324;SDS011;8272;50.776;0.294;2024-03-22T00:50:30;0.00;;;0.00;;
16324;SDS011;8272;50.776;0.294;2024-03-22T00:52:57;0.00;;;0.00;;
16324;SDS011;8272;50.776;0.294;2024-03-22T00:55:23;0.00;;;0.00;;
16324;SDS011;8272;50.776;0.294;2024-03-22T00:57:50;0.00;;;0.00;;
16324;SDS011;8272;50.776;0.294;2024-03-22T01:00:16;0.00;;;0.00;;
16324;SDS011;8272;50.776;0.294;2024-03-22T01:02:43;0.00;;;0.00;;
16324;SDS011;8272;50.776;0.294;2024-03-22T01:05:09;0.00;;;0.00;;
16324;SDS011;8272;50.776;0.294;2024-03-22T01:07:36;0.00;;;0.00;;
16324;SDS011;8272;50.776;0.294;2024-03-22T01:10:03;0.00;;;0.00;;
16324;SDS011;8272;50.776;0.294;2024-03-22T01:12:29;0.00;;;0.00;;
16324;SDS011;8272;50.776;0.294;2024-03-22T01:14:56;0.00;;;0.00;;
16324;SDS011;8272;50.776;0.294;2024-03-22T01:17:23;0.00;;;0.00;;
16324;SDS011;8272;50.776;0.294;2024-03-22T01:19:49;0.00;;;0.00;;
16324;SDS011;8272;50.776;0.294;2024-03-22T01:22:16;0.00;;;0.00;;
16324;SDS011;8272;50.776;0.294;2024-03-22T01:24:42;0.00;;;0.00;;
16324;SDS011;8272;50.776;0.294;2024-03-22T01:27:09;0.00;;;0.00;;
16324;SDS011;8272;50.776;0.294;2024-03-22T01:29:35;0.00;;;0.00;;
16324;SDS011;8272;50.776;0.294;2024-03-22T01:32:02;0.00;;;0.00;;
16324;SDS011;8272;50.776;0.294;2024-03-22T01:34:28;0.00;;;0.00;;
16324;SDS011;8272;50.776;0.294;2024-03-22T01:36:55;0.00;;;0.00;;
16324;SDS011;8272;50.776;0.294;2024-03-22T01:39:21;0.00;;;0.00;;
16324;SDS011;8272;50.776;0.294;2024-03-22T01:41:47;0.00;;;0.00;;
16324;SDS011;8272;50.776;0.294;2024-03-22T01:44:14;0.00;;;0.00;;
16324;SDS011;8272;50.776;0.294;2024-03-22T01:46:41;0.00;;;0.00;;
16324;SDS011;8272;50.776;0.294;2024-03-22T01:49:11;0.00;;;0.00;;
16324;SDS011;8272;50.776;0.294;2024-03-22T01:51:39;0.00;;;0.00;;
16324;SDS011;8272;50.776;0.294;2024-03-22T01:54:05;0.00;;;0.00;;
16324;SDS011;8272;50.776;0.294;2024-03-22T01:56:35;0.00;;;0.00;;
16324;SDS011;8272;50.776;0.294;2024-03-22T01:59:02;0.00;;;0.00;;
16324;SDS011;8272;50.776;0.294;2024-03-22T02:01:28;0.00;;;0.00;;
16324;SDS011;8272;50.776;0.294;2024-03-22T02:03:55;0.00;;;0.00;;
16324;SDS011;8272;50.776;0.294;2024-03-22T02:06:21;0.00;;;0.00;;
16324;SDS011;8272;50.776;0.294;2024-03-22T02:08:47;0.00;;;0.00;;
16324;SDS011;8272;50.776;0.294;2024-03-22T02:11:13;0.00;;;0.00;;
16324;SDS011;8272;50.776;0.294;2024-03-22T02:13:39;0.00;;;0.00;;
16324;SDS011;8272;50.776;0.294;2024-03-22T02:16:05;0.00;;;0.00;;
16324;SDS011;8272;50.776;0.294;2024-03-22T02:18:32;0.00;;;0.00;;
16324;SDS011;8272;50.776;0.294;2024-03-22T02:20:58;0.00;;;0.00;;
16324;SDS011;8272;50.776;0.294;2024-03-22T02:23:42;0.00;;;0.00;;
16324;SDS011;8272;50.776;0.294;2024-03-22T02:26:08;0.00;;;0.00;;
16324;SDS011;8272;50.776;0.294;2024-03-22T02:28:35;0.00;;;0.00;;
16324;SDS011;8272;50.776;0.294;2024-03-22T02:31:01;0.00;;;0.00;;
16324;SDS011;8272;50.776;0.294;2024-03-22T02:33:28;0.00;;;0.00;;
16324;SDS011;8272;50.776;0.294;2024-03-22T02:35:54;0.00;;;0.00;;
16324;SDS011;8272;50.776;0.294;2024-03-22T02:38:21;0.00;;;0.00;;
16324;SDS011;8272;50.776;0.294;2024-03-22T02:40:47;0.00;;;0.00;;
16324;SDS011;8272;50.776;0.294;2024-03-22T02:43:13;0.00;;;0.00;;
16324;SDS011;8272;50.776;0.294;2024-03-22T02:45:40;0.00;;;0.00;;
16324;SDS011;8272;50.776;0.294;2024-03-22T02:48:06;0.00;;;0.00;;
16324;SDS011;8272;50.776;0.294;2024-03-22T02:50:33;0.00;;;0.00;;
16324;SDS011;8272;50.776;0.294;2024-03-22T02:52:59;0.00;;;0.00;;
16324;SDS011;8272;50.776;0.294;2024-03-22T02:55:25;0.00;;;0.00;;
16324;SDS011;8272;50.776;0.294;2024-03-22T02:57:51;0.00;;;0.00;;
16324;SDS011;8272;50.776;0.294;2024-03-22T03:00:17;0.00;;;0.00;;
16324;SDS011;8272;50.776;0.294;2024-03-22T03:02:44;0.00;;;0.00;;
16324;SDS011;8272;50.776;0.294;2024-03-22T03:05:10;0.00;;;0.00;;
16324;SDS011;8272;50.776;0.294;2024-03-22T03:07:36;0.00;;;0.00;;
16324;SDS011;8272;50.776;0.294;2024-03-22T03:10:02;0.00;;;0.00;;
16324;SDS011;8272;50.776;0.294;2024-03-22T03:12:29;0.00;;;0.00;;
16324;SDS011;8272;50.776;0.294;2024-03-22T03:14:55;0.00;;;0.00;;
16324;SDS011;8272;50.776;0.294;2024-03-22T03:17:21;0.00;;;0.00;;
16324;SDS011;8272;50.776;0.294;2024-03-22T03:19:48;0.00;;;0.00;;
16324;SDS011;8272;50.776;0.294;2024-03-22T03:22:14;0.00;;;0.00;;
16324;SDS011;8272;50.776;0.294;2024-03-22T03:24:40;0.00;;;0.00;;
16324;SDS011;8272;50.776;0.294;2024-03-22T03:27:07;0.00;;;0.00;;
16324;SDS011;8272;50.776;0.294;2024-03-22T03:29:33;0.00;;;0.00;;
16324;SDS011;8272;50.776;0.294;2024-03-22T03:31:59;0.00;;;0.00;;
16324;SDS011;8272;50.776;0.294;2024-03-22T03:34:25;0.00;;;0.00;;
16324;SDS011;8272;50.776;0.294;2024-03-22T03:36:51;0.00;;;0.00;;
16324;SDS011;8272;50.776;0.294;2024-03-22T03:39:17;0.00;;;0.00;;
16324;SDS011;8272;50.776;0.294;2024-03-22T03:41:43;0.00;;;0.00;;
16324;SDS011;8272;50.776;0.294;2024-03-22T03:44:09;0.00;;;0.00;;
16324;SDS011;8272;50.776;0.294;2024-03-22T03:46:36;0.00;;;0.00;;
16324;SDS011;8272;50.776;0.294;2024-03-22T03:49:02;0.00;;;0.00;;
16324;SDS011;8272;50.776;0.294;2024-03-22T03:51:28;0.00;;;0.00;;
16324;SDS011;8272;50.776;0.294;2024-03-22T03:53:54;0.00;;;0.00;;
16324;SDS011;8272;50.776;0.294;2024-03-22T03:56:20;0.00;;;0.00;;
16324;SDS011;8272;50.776;0.294;2024-03-22T03:58:46;0.00;;;0.00;;
16324;SDS011;8272;50.776;0.294;2024-03-22T04:01:13;0.00;;;0.00;;
16324;SDS011;8272;50.776;0.294;2024-03-22T04:03:39;0.00;;;0.00;;
16324;SDS011;8272;50.776;0.294;2024-03-22T04:06:05;0.00;;;0.00;;
16324;SDS011;8272;50.776;0.294;2024-03-22T04:08:31;0.00;;;0.00;;
16324;SDS011;8272;50.776;0.294;2024-03-22T04:10:58;0.00;;;0.00;;
16324;SDS011;8272;50.776;0.294;2024-03-22T04:13:24;0.00;;;0.00;;
16324;SDS011;8272;50.776;0.294;2024-03-22T04:15:50;0.00;;;0.00;;
16324;SDS011;8272;50.776;0.294;2024-03-22T04:18:17;0.00;;;0.00;;
16324;SDS011;8272;50.776;0.294;2024-03-22T04:20:52;0.00;;;0.00;;
16324;SDS011;8272;50.776;0.294;2024-03-22T04:23:18;0.00;;;0.00;;
16324;SDS011;8272;50.776;0.294;2024-03-22T04:26:18;0.00;;;0.00;;
16324;SDS011;8272;50.776;0.294;2024-03-22T04:28:37;0.00;;;0.00;;
16324;SDS011;8272;50.776;0.294;2024-03-22T04:31:04;0.00;;;0.00;;
16324;SDS011;8272;50.776;0.294;2024-03-22T04:33:31;0.00;;;0.00;;
16324;SDS011;8272;50.776;0.294;2024-03-22T04:35:57;0.00;;;0.00;;
16324;SDS011;8272;50.776;0.294;2024-03-22T04:38:24;0.00;;;0.00;;
16324;SDS011;8272;50.776;0.294;2024-03-22T04:40:50;0.00;;;0.00;;
16324;SDS011;8272;50.776;0.294;2024-03-22T04:43:17;0.00;;;0.00;;
16324;SDS011;8272;50.776;0.294;2024-03-22T04:45:43;0.00;;;0.00;;
16324;SDS011;8272;50.776;0.294;2024-03-22T04:48:10;0.00;;;0.00;;
16324;SDS011;8272;50.776;0.294;2024-03-22T04:50:36;0.00;;;0.00;;
16324;SDS011;8272;50.776;0.294;2024-03-22T04:53:02;0.00;;;0.00;;
16324;SDS011;8272;50.776;0.294;2024-03-22T04:55:28;0.00;;;0.00;;
16324;SDS011;8272;50.776;0.294;2024-03-22T04:57:54;0.00;;;0.00;;
16324;SDS011;8272;50.776;0.294;2024-03-22T05:00:20;0.00;;;0.00;;
16324;SDS011;8272;50.776;0.294;2024-03-22T05:02:47;0.00;;;0.00;;
16324;SDS011;8272;50.776;0.294;2024-03-22T05:05:13;0.00;;;0.00;;
16324;SDS011;8272;50.776;0.294;2024-03-22T05:07:39;0.00;;;0.00;;
16324;SDS011;8272;50.776;0.294;2024-03-22T05:10:05;0.00;;;0.00;;
16324;SDS011;8272;50.776;0.294;2024-03-22T05:12:31;0.00;;;0.00;;
16324;SDS011;8272;50.776;0.294;2024-03-22T05:14:57;0.00;;;0.00;;
16324;SDS011;8272;50.776;0.294;2024-03-22T05:17:24;0.00;;;0.00;;
16324;SDS011;8272;50.776;0.294;2024-03-22T05:19:50;0.00;;;0.00;;
16324;SDS011;8272;50.776;0.294;2024-03-22T05:22:17;0.00;;;0.00;;
16324;SDS011;8272;50.776;0.294;2024-03-22T05:24:45;0.00;;;0.00;;
16324;SDS011;8272;50.776;0.294;2024-03-22T05:27:11;0.00;;;0.00;;
16324;SDS011;8272;50.776;0.294;2024-03-22T05:29:37;0.00;;;0.00;;
16324;SDS011;8272;50.776;0.294;2024-03-22T05:32:04;0.00;;;0.00;;
16324;SDS011;8272;50.776;0.294;2024-03-22T05:34:30;0.00;;;0.00;;
16324;SDS011;8272;50.776;0.294;2024-03-22T05:36:57;0.00;;;0.00;;
16324;SDS011;8272;50.776;0.294;2024-03-22T05:39:24;0.00;;;0.00;;
16324;SDS011;8272;50.776;0.294;2024-03-22T05:41:50;0.00;;;0.00;;
16324;SDS011;8272;50.776;0.294;2024-03-22T05:44:16;0.00;;;0.00;;
16324;SDS011;8272;50.776;0.294;2024-03-22T05:46:42;0.00;;;0.00;;
16324;SDS011;8272;50.776;0.294;2024-03-22T05:49:08;0.00;;;0.00;;
16324;SDS011;8272;50.776;0.294;2024-03-22T05:51:34;0.00;;;0.00;;
16324;SDS011;8272;50.776;0.294;2024-03-22T05:54:00;0.00;;;0.00;;
16324;SDS011;8272;50.776;0.294;2024-03-22T05:56:27;0.00;;;0.00;;
16324;SDS011;8272;50.776;0.294;2024-03-22T05:58:53;0.00;;;0.00;;
16324;SDS011;8272;50.776;0.294;2024-03-22T06:01:20;0.00;;;0.00;;
16324;SDS011;8272;50.776;0.294;2024-03-22T06:03:46;0.00;;;0.00;;
16324;SDS011;8272;50.776;0.294;2024-03-22T06:06:12;0.00;;;0.00;;
16324;SDS011;8272;50.776;0.294;2024-03-22T06:08:38;0.00;;;0.00;;
16324;SDS011;8272;50.776;0.294;2024-03-22T06:11:06;0.00;;;0.00;;
16324;SDS011;8272;50.776;0.294;2024-03-22T06:13:33;0.00;;;0.00;;
16324;SDS011;8272;50.776;0.294;2024-03-22T06:16:00;0.00;;;0.00;;
16324;SDS011;8272;50.776;0.294;2024-03-22T06:18:26;0.00;;;0.00;;
16324;SDS011;8272;50.776;0.294;2024-03-22T06:20:52;0.00;;;0.00;;
16324;SDS011;8272;50.776;0.294;2024-03-22T06:23:20;0.00;;;0.00;;
16324;SDS011;8272;50.776;0.294;2024-03-22T06:25:53;0.00;;;0.00;;
16324;SDS011;8272;50.776;0.294;2024-03-22T06:28:19;0.00;;;0.00;;
16324;SDS011;8272;50.776;0.294;2024-03-22T06:30:45;0.00;;;0.00;;
16324;SDS011;8272;50.776;0.294;2024-03-22T06:33:11;0.00;;;0.00;;
16324;SDS011;8272;50.776;0.294;2024-03-22T06:35:38;0.00;;;0.00;;
16324;SDS011;8272;50.776;0.294;2024-03-22T06:38:04;0.00;;;0.00;;
16324;SDS011;8272;50.776;0.294;2024-03-22T06:40:30;0.00;;;0.00;;
16324;SDS011;8272;50.776;0.294;2024-03-22T06:42:57;0.00;;;0.00;;
16324;SDS011;8272;50.776;0.294;2024-03-22T06:45:23;0.00;;;0.00;;
16324;SDS011;8272;50.776;0.294;2024-03-22T06:47:49;0.00;;;0.00;;
16324;SDS011;8272;50.776;0.294;2024-03-22T06:50:16;0.00;;;0.00;;
16324;SDS011;8272;50.776;0.294;2024-03-22T06:52:52;0.00;;;0.00;;
16324;SDS011;8272;50.776;0.294;2024-03-22T06:55:18;0.00;;;0.00;;
16324;SDS011;8272;50.776;0.294;2024-03-22T06:57:45;0.00;;;0.00;;
16324;SDS011;8272;50.776;0.294;2024-03-22T07:00:12;0.00;;;0.00;;
16324;SDS011;8272;50.776;0.294;2024-03-22T07:02:38;0.00;;;0.00;;
16324;SDS011;8272;50.776;0.294;2024-03-22T07:05:05;0.00;;;0.00;;
16324;SDS011;8272;50.776;0.294;2024-03-22T07:07:32;0.00;;;0.00;;
16324;SDS011;8272;50.776;0.294;2024-03-22T07:09:58;0.00;;;0.00;;
16324;SDS011;8272;50.776;0.294;2024-03-22T07:12:24;0.00;;;0.00;;
16324;SDS011;8272;50.776;0.294;2024-03-22T07:14:50;0.00;;;0.00;;
16324;SDS011;8272;50.776;0.294;2024-03-22T07:17:17;0.00;;;0.00;;
16324;SDS011;8272;50.776;0.294;2024-03-22T07:19:44;0.00;;;0.00;;
16324;SDS011;8272;50.776;0.294;2024-03-22T07:22:10;0.00;;;0.00;;
16324;SDS011;8272;50.776;0.294;2024-03-22T07:24:37;0.00;;;0.00;;
16324;SDS011;8272;50.776;0.294;2024-03-22T07:27:03;0.00;;;0.00;;
16324;SDS011;8272;50.776;0.294;2024-03-22T07:29:29;0.00;;;0.00;;
16324;SDS011;8272;50.776;0.294;2024-03-22T07:31:55;0.00;;;0.00;;
16324;SDS011;8272;50.776;0.294;2024-03-22T07:34:21;0.00;;;0.00;;
16324;SDS011;8272;50.776;0.294;2024-03-22T07:36:48;0.00;;;0.00;;
16324;SDS011;8272;50.776;0.294;2024-03-22T07:39:14;0.00;;;0.00;;
16324;SDS011;8272;50.776;0.294;2024-03-22T07:41:40;0.00;;;0.00;;
16324;SDS011;8272;50.776;0.294;2024-03-22T07:44:06;0.00;;;0.00;;
16324;SDS011;8272;50.776;0.294;2024-03-22T07:46:32;0.00;;;0.00;;
16324;SDS011;8272;50.776;0.294;2024-03-22T07:48:59;0.00;;;0.00;;
16324;SDS011;8272;50.776;0.294;2024-03-22T07:51:25;0.00;;;0.00;;
16324;SDS011;8272;50.776;0.294;2024-03-22T07:53:51;0.00;;;0.00;;
16324;SDS011;8272;50.776;0.294;2024-03-22T07:56:17;0.00;;;0.00;;
16324;SDS011;8272;50.776;0.294;2024-03-22T07:58:44;0.00;;;0.00;;
16324;SDS011;8272;50.776;0.294;2024-03-22T08:01:10;0.00;;;0.00;;
16324;SDS011;8272;50.776;0.294;2024-03-22T08:03:36;0.00;;;0.00;;
16324;SDS011;8272;50.776;0.294;2024-03-22T08:06:03;0.00;;;0.00;;
16324;SDS011;8272;50.776;0.294;2024-03-22T08:08:29;0.10;;;0.10;;
16324;SDS011;8272;50.776;0.294;2024-03-22T08:10:55;0.00;;;0.00;;
16324;SDS011;8272;50.776;0.294;2024-03-22T08:13:21;0.10;;;0.10;;
16324;SDS011;8272;50.776;0.294;2024-03-22T08:15:47;0.30;;;0.30;;
16324;SDS011;8272;50.776;0.294;2024-03-22T08:18:13;0.28;;;0.28;;
16324;SDS011;8272;50.776;0.294;2024-03-22T08:20:40;0.30;;;0.30;;
16324;SDS011;8272;50.776;0.294;2024-03-22T08:23:06;0.40;;;0.40;;
16324;SDS011;8272;50.776;0.294;2024-03-22T08:25:32;0.40;;;0.40;;
16324;SDS011;8272;50.776;0.294;2024-03-22T08:27:58;0.30;;;0.30;;
16324;SDS011;8272;50.776;0.294;2024-03-22T08:30:25;0.40;;;0.40;;
16324;SDS011;8272;50.776;0.294;2024-03-22T08:32:52;0.40;;;0.40;;
16324;SDS011;8272;50.776;0.294;2024-03-22T08:35:18;0.30;;;0.30;;
16324;SDS011;8272;50.776;0.294;2024-03-22T08:37:44;0.30;;;0.30;;
16324;SDS011;8272;50.776;0.294;2024-03-22T08:40:10;0.10;;;0.10;;
16324;SDS011;8272;50.776;0.294;2024-03-22T08:42:37;0.00;;;0.00;;
16324;SDS011;8272;50.776;0.294;2024-03-22T08:45:05;0.00;;;0.00;;
16324;SDS011;8272;50.776;0.294;2024-03-22T08:47:32;0.00;;;0.00;;
16324;SDS011;8272;50.776;0.294;2024-03-22T08:49:59;0.00;;;0.00;;
16324;SDS011;8272;50.776;0.294;2024-03-22T08:52:25;0.00;;;0.00;;
16324;SDS011;8272;50.776;0.294;2024-03-22T08:54:54;0.00;;;0.00;;
16324;SDS011;8272;50.776;0.294;2024-03-22T08:57:20;0.00;;;0.00;;
16324;SDS011;8272;50.776;0.294;2024-03-22T08:59:47;0.00;;;0.00;;
16324;SDS011;8272;50.776;0.294;2024-03-22T09:02:13;0.00;;;0.00;;
16324;SDS011;8272;50.776;0.294;2024-03-22T09:04:39;0.00;;;0.00;;
16324;SDS011;8272;50.776;0.294;2024-03-22T09:07:06;0.00;;;0.00;;
16324;SDS011;8272;50.776;0.294;2024-03-22T09:09:33;0.00;;;0.00;;
16324;SDS011;8272;50.776;0.294;2024-03-22T09:11:59;0.00;;;0.00;;
16324;SDS011;8272;50.776;0.294;2024-03-22T09:14:25;0.00;;;0.00;;
16324;SDS011;8272;50.776;0.294;2024-03-22T09:16:51;0.00;;;0.00;;
16324;SDS011;8272;50.776;0.294;2024-03-22T09:19:17;0.00;;;0.00;;
16324;SDS011;8272;50.776;0.294;2024-03-22T09:21:44;0.00;;;0.00;;
16324;SDS011;8272;50.776;0.294;2024-03-22T09:24:10;0.00;;;0.00;;
16324;SDS011;8272;50.776;0.294;2024-03-22T09:26:36;0.00;;;0.00;;
16324;SDS011;8272;50.776;0.294;2024-03-22T09:29:02;0.00;;;0.00;;
16324;SDS011;8272;50.776;0.294;2024-03-22T09:31:29;0.00;;;0.00;;
16324;SDS011;8272;50.776;0.294;2024-03-22T09:33:56;0.00;;;0.00;;
16324;SDS011;8272;50.776;0.294;2024-03-22T09:36:22;0.00;;;0.00;;
16324;SDS011;8272;50.776;0.294;2024-03-22T09:38:49;0.00;;;0.00;;
16324;SDS011;8272;50.776;0.294;2024-03-22T09:41:16;0.00;;;0.00;;
16324;SDS011;8272;50.776;0.294;2024-03-22T09:43:47;0.00;;;0.00;;
16324;SDS011;8272;50.776;0.294;2024-03-22T09:46:16;0.00;;;0.00;;
16324;SDS011;8272;50.776;0.294;2024-03-22T09:48:43;0.00;;;0.00;;
16324;SDS011;8272;50.776;0.294;2024-03-22T09:51:10;0.00;;;0.00;;
16324;SDS011;8272;50.776;0.294;2024-03-22T09:53:37;0.00;;;0.00;;
16324;SDS011;8272;50.776;0.294;2024-03-22T09:56:04;0.00;;;0.00;;
16324;SDS011;8272;50.776;0.294;2024-03-22T09:58:31;0.00;;;0.00;;
16324;SDS011;8272;50.776;0.294;2024-03-22T10:00:57;0.00;;;0.00;;
16324;SDS011;8272;50.776;0.294;2024-03-22T10:03:26;0.00;;;0.00;;
16324;SDS011;8272;50.776;0.294;2024-03-22T10:05:52;0.00;;;0.00;;
16324;SDS011;8272;50.776;0.294;2024-03-22T10:08:18;0.00;;;0.00;;
16324;SDS011;8272;50.776;0.294;2024-03-22T10:10:44;0.00;;;0.00;;
16324;SDS011;8272;50.776;0.294;2024-03-22T10:13:11;0.00;;;0.00;;
16324;SDS011;8272;50.776;0.294;2024-03-22T10:15:37;0.00;;;0.00;;
16324;SDS011;8272;50.776;0.294;2024-03-22T10:18:03;0.00;;;0.00;;
16324;SDS011;8272;50.776;0.294;2024-03-22T10:20:29;0.00;;;0.00;;
16324;SDS011;8272;50.776;0.294;2024-03-22T10:22:56;0.00;;;0.00;;
16324;SDS011;8272;50.776;0.294;2024-03-22T10:25:29;0.00;;;0.00;;
16324;SDS011;8272;50.776;0.294;2024-03-22T10:27:55;0.00;;;0.00;;
16324;SDS011;8272;50.776;0.294;2024-03-22T10:30:22;0.00;;;0.00;;
16324;SDS011;8272;50.776;0.294;2024-03-22T10:32:49;0.00;;;0.00;;
16324;SDS011;8272;50.776;0.294;2024-03-22T10:35:15;0.00;;;0.00;;
16324;SDS011;8272;50.776;0.294;2024-03-22T10:37:42;0.00;;;0.00;;
16324;SDS011;8272;50.776;0.294;2024-03-22T10:40:08;0.00;;;0.00;;
16324;SDS011;8272;50.776;0.294;2024-03-22T10:42:35;0.00;;;0.00;;
16324;SDS011;8272;50.776;0.294;2024-03-22T10:45:02;0.00;;;0.00;;
16324;SDS011;8272;50.776;0.294;2024-03-22T10:47:29;0.00;;;0.00;;
16324;SDS011;8272;50.776;0.294;2024-03-22T10:50:11;0.00;;;0.00;;
16324;SDS011;8272;50.776;0.294;2024-03-22T10:52:39;0.00;;;0.00;;
16324;SDS011;8272;50.776;0.294;2024-03-22T10:55:07;0.00;;;0.00;;
16324;SDS011;8272;50.776;0.294;2024-03-22T10:57:34;0.00;;;0.00;;
16324;SDS011;8272;50.776;0.294;2024-03-22T11:00:11;0.00;;;0.00;;
16324;SDS011;8272;50.776;0.294;2024-03-22T11:02:37;0.00;;;0.00;;
16324;SDS011;8272;50.776;0.294;2024-03-22T11:05:04;0.00;;;0.00;;
16324;SDS011;8272;50.776;0.294;2024-03-22T11:07:32;0.00;;;0.00;;
16324;SDS011;8272;50.776;0.294;2024-03-22T11:10:01;0.00;;;0.00;;
16324;SDS011;8272;50.776;0.294;2024-03-22T11:12:31;0.00;;;0.00;;
16324;SDS011;8272;50.776;0.294;2024-03-22T11:14:58;0.00;;;0.00;;
16324;SDS011;8272;50.776;0.294;2024-03-22T11:17:25;0.00;;;0.00;;
16324;SDS011;8272;50.776;0.294;2024-03-22T11:19:51;0.00;;;0.00;;
16324;SDS011;8272;50.776;0.294;2024-03-22T11:22:17;0.00;;;0.00;;
16324;SDS011;8272;50.776;0.294;2024-03-22T11:24:44;0.00;;;0.00;;
16324;SDS011;8272;50.776;0.294;2024-03-22T11:27:10;0.00;;;0.00;;
16324;SDS011;8272;50.776;0.294;2024-03-22T11:29:40;0.00;;;0.00;;
16324;SDS011;8272;50.776;0.294;2024-03-22T11:32:07;0.00;;;0.00;;
16324;SDS011;8272;50.776;0.294;2024-03-22T11:34:34;0.00;;;0.00;;
16324;SDS011;8272;50.776;0.294;2024-03-22T11:37:01;0.00;;;0.00;;
16324;SDS011;8272;50.776;0.294;2024-03-22T11:39:27;0.00;;;0.00;;
16324;SDS011;8272;50.776;0.294;2024-03-22T11:41:53;0.00;;;0.00;;
16324;SDS011;8272;50.776;0.294;2024-03-22T11:44:19;0.00;;;0.00;;
16324;SDS011;8272;50.776;0.294;2024-03-22T11:46:47;0.00;;;0.00;;
16324;SDS011;8272;50.776;0.294;2024-03-22T11:49:13;0.00;;;0.00;;
16324;SDS011;8272;50.776;0.294;2024-03-22T11:51:39;0.00;;;0.00;;
16324;SDS011;8272;50.776;0.294;2024-03-22T11:54:06;0.00;;;0.00;;
16324;SDS011;8272;50.776;0.294;2024-03-22T11:56:34;0.00;;;0.00;;
16324;SDS011;8272;50.776;0.294;2024-03-22T11:59:00;0.00;;;0.00;;
16324;SDS011;8272;50.776;0.294;2024-03-22T12:01:28;0.00;;;0.00;;
16324;SDS011;8272;50.776;0.294;2024-03-22T12:03:55;0.00;;;0.00;;
16324;SDS011;8272;50.776;0.294;2024-03-22T12:06:21;0.00;;;0.00;;
16324;SDS011;8272;50.776;0.294;2024-03-22T12:08:47;0.00;;;0.00;;
16324;SDS011;8272;50.776;0.294;2024-03-22T12:11:13;0.00;;;0.00;;
16324;SDS011;8272;50.776;0.294;2024-03-22T12:13:40;0.00;;;0.00;;
16324;SDS011;8272;50.776;0.294;2024-03-22T12:16:06;0.00;;;0.00;;
16324;SDS011;8272;50.776;0.294;2024-03-22T12:18:32;0.00;;;0.00;;
16324;SDS011;8272;50.776;0.294;2024-03-22T12:20:59;0.00;;;0.00;;
16324;SDS011;8272;50.776;0.294;2024-03-22T12:23:25;0.00;;;0.00;;
16324;SDS011;8272;50.776;0.294;2024-03-22T12:25:52;0.00;;;0.00;;
16324;SDS011;8272;50.776;0.294;2024-03-22T12:28:18;0.00;;;0.00;;
16324;SDS011;8272;50.776;0.294;2024-03-22T12:30:44;0.00;;;0.00;;
16324;SDS011;8272;50.776;0.294;2024-03-22T12:33:10;0.00;;;0.00;;
16324;SDS011;8272;50.776;0.294;2024-03-22T12:35:39;0.00;;;0.00;;
16324;SDS011;8272;50.776;0.294;2024-03-22T12:38:05;0.00;;;0.00;;
16324;SDS011;8272;50.776;0.294;2024-03-22T12:40:32;0.00;;;0.00;;
16324;SDS011;8272;50.776;0.294;2024-03-22T12:42:58;0.00;;;0.00;;
16324;SDS011;8272;50.776;0.294;2024-03-22T12:45:25;0.00;;;0.00;;
16324;SDS011;8272;50.776;0.294;2024-03-22T12:47:51;0.00;;;0.00;;
16324;SDS011;8272;50.776;0.294;2024-03-22T12:50:18;0.00;;;0.00;;
16324;SDS011;8272;50.776;0.294;2024-03-22T12:52:44;0.00;;;0.00;;
16324;SDS011;8272;50.776;0.294;2024-03-22T12:55:10;0.00;;;0.00;;
16324;SDS011;8272;50.776;0.294;2024-03-22T12:57:37;0.00;;;0.00;;
16324;SDS011;8272;50.776;0.294;2024-03-22T13:00:03;0.00;;;0.00;;
16324;SDS011;8272;50.776;0.294;2024-03-22T13:02:31;0.00;;;0.00;;
16324;SDS011;8272;50.776;0.294;2024-03-22T13:04:58;0.10;;;0.10;;
16324;SDS011;8272;50.776;0.294;2024-03-22T13:07:24;0.40;;;0.40;;
16324;SDS011;8272;50.776;0.294;2024-03-22T13:09:50;5.32;;;5.13;;
16324;SDS011;8272;50.776;0.294;2024-03-22T13:12:17;9.20;;;8.80;;
16324;SDS011;8272;50.776;0.294;2024-03-22T13:14:43;6.97;;;6.68;;
16324;SDS011;8272;50.776;0.294;2024-03-22T13:17:09;14.63;;;13.93;;
16324;SDS011;8272;50.776;0.294;2024-03-22T13:19:35;2.25;;;2.15;;
16324;SDS011;8272;50.776;0.294;2024-03-22T13:22:01;0.00;;;0.00;;
16324;SDS011;8272;50.776;0.294;2024-03-22T13:24:27;0.00;;;0.00;;
16324;SDS011;8272;50.776;0.294;2024-03-22T13:26:54;0.10;;;0.10;;
16324;SDS011;8272;50.776;0.294;2024-03-22T13:29:20;0.20;;;0.20;;
16324;SDS011;8272;50.776;0.294;2024-03-22T13:31:46;0.30;;;0.30;;
16324;SDS011;8272;50.776;0.294;2024-03-22T13:34:12;0.40;;;0.40;;
16324;SDS011;8272;50.776;0.294;2024-03-22T13:36:38;0.30;;;0.30;;
16324;SDS011;8272;50.776;0.294;2024-03-22T13:39:04;0.10;;;0.10;;
16324;SDS011;8272;50.776;0.294;2024-03-22T13:41:30;0.10;;;0.10;;
16324;SDS011;8272;50.776;0.294;2024-03-22T13:43:57;0.68;;;0.68;;
16324;SDS011;8272;50.776;0.294;2024-03-22T13:46:23;0.00;;;0.00;;
16324;SDS011;8272;50.776;0.294;2024-03-22T13:48:51;0.00;;;0.00;;
16324;SDS011;8272;50.776;0.294;2024-03-22T13:51:17;0.00;;;0.00;;
16324;SDS011;8272;50.776;0.294;2024-03-22T13:53:43;0.00;;;0.00;;
16324;SDS011;8272;50.776;0.294;2024-03-22T13:56:09;0.00;;;0.00;;
16324;SDS011;8272;50.776;0.294;2024-03-22T13:58:35;0.00;;;0.00;;
16324;SDS011;8272;50.776;0.294;2024-03-22T14:01:01;0.00;;;0.00;;
16324;SDS011;8272;50.776;0.294;2024-03-22T14:03:28;0.00;;;0.00;;
16324;SDS011;8272;50.776;0.294;2024-03-22T14:05:54;0.00;;;0.00;;
16324;SDS011;8272;50.776;0.294;2024-03-22T14:08:23;0.47;;;0.47;;
16324;SDS011;8272;50.776;0.294;2024-03-22T14:10:52;0.00;;;0.00;;
16324;SDS011;8272;50.776;0.294;2024-03-22T14:13:18;0.00;;;0.00;;
16324;SDS011;8272;50.776;0.294;2024-03-22T14:15:44;0.00;;;0.00;;
16324;SDS011;8272;50.776;0.294;2024-03-22T14:18:10;0.00;;;0.00;;
16324;SDS011;8272;50.776;0.294;2024-03-22T14:20:37;0.00;;;0.00;;
16324;SDS011;8272;50.776;0.294;2024-03-22T14:23:03;0.00;;;0.00;;
16324;SDS011;8272;50.776;0.294;2024-03-22T14:25:31;0.00;;;0.00;;
16324;SDS011;8272;50.776;0.294;2024-03-22T14:27:57;0.00;;;0.00;;
16324;SDS011;8272;50.776;0.294;2024-03-22T14:30:24;0.00;;;0.00;;
16324;SDS011;8272;50.776;0.294;2024-03-22T14:32:50;0.00;;;0.00;;
16324;SDS011;8272;50.776;0.294;2024-03-22T14:35:17;0.00;;;0.00;;
16324;SDS011;8272;50.776;0.294;2024-03-22T14:37:43;0.00;;;0.00;;
16324;SDS011;8272;50.776;0.294;2024-03-22T14:40:10;0.00;;;0.00;;
16324;SDS011;8272;50.776;0.294;2024-03-22T14:42:37;0.00;;;0.00;;
16324;SDS011;8272;50.776;0.294;2024-03-22T14:45:03;0.00;;;0.00;;
16324;SDS011;8272;50.776;0.294;2024-03-22T14:47:30;0.00;;;0.00;;
16324;SDS011;8272;50.776;0.294;2024-03-22T14:49:56;0.00;;;0.00;;
16324;SDS011;8272;50.776;0.294;2024-03-22T14:52:22;0.00;;;0.00;;
16324;SDS011;8272;50.776;0.294;2024-03-22T14:54:51;0.00;;;0.00;;
16324;SDS011;8272;50.776;0.294;2024-03-22T14:57:17;0.00;;;0.00;;